Gairloch, United Kingdom
Current Conditions -  °F | °C
As of 12:50 PM on Monday 22 Dec 2014 (Local Time) from EGPO Reporting Station
Rain Showers Rain Showers  
Wind Chill: 31°   Ceiling: Unl
Heat Index: 41°   Visibility: 6mi
Dew Point: 37°   Wind: 22mph
Humidity: 87%   Direction: 250°WSW
Pressure: 29.44"   Gusts: NA
Location:  57.7°N, 5.73°W
Report Text: EGPO 221250Z 25019KT 9999 VCSH FEW012 FEW018CB 05/03 Q0997
Loading
Personal Weather Stations






























Interactive Weather Map New forecast layout! Learn more

10-Day Weather Forecast

Advertisements
Track Severe Weather on mobile